Ypsilanti, MI

8:56 PM EDT on July 25, 2017 (GMT -0400)
Willow Run

Weather History for KYIP - January, 2013

Change the Weather History Date:

Monday, January 21, 2013

  Actual Average Record
Temperature  
Mean Temperature 12 °F -  
Max Temperature 19 °F 30 °F 59 °F (2017)
Min Temperature 6 °F 15 °F -19 °F (1984)
Degree Days  
Heating Degree Days 52    
Moisture  
Dew Point 7 °F    
Average Humidity 66    
Maximum Humidity 79    
Minimum Humidity 53    
Precipitation  
Precipitation 0.00 in - - ()
Sea Level Pressure  
Sea Level Pressure 30.01 in    
Wind  
Wind Speed 10 mph (WNW)    
Max Wind Speed 24 mph    
Max Gust Speed 30 mph    
Visibility 5 miles    
Events Snow    
Averages and records for this station are not official NWS values.
T = Trace of Precipitation, MM = Missing Value Source: NWS Daily Summary

Daily Weather History Graph

Daily Weather History Graph

Search for Another Location

Airport or City:

Trip Planner

Search our weather history database for the weather conditions in past years. The results will help you decide how hot, cold, wet, or windy it might be!

Date:

Astronomy

Jan. 21, 2013 Rise Set
Actual Time 7:56 AM EST 5:34 PM EST
Civil Twilight 7:26 AM EST 6:05 PM EST
Nautical Twilight 6:52 AM EST 6:39 PM EST
Astronomical Twilight 6:18 AM EST 7:12 PM EST
Moon 1:13 PM EST (1/21) 3:24 AM EST (1/21)
Length of Visible Light 10h 39m
Length of Day
9h 38m
Waxing Gibbous, 75% of the Moon is Illuminated
Jan 21
Waxing Gibbous
Jan 26
Full
Feb 3
Last Quarter
Feb 10
New
Feb 17
First Quarter

Hourly Weather History & Observations

Time (EST) Temp. Windchill Dew Point Humidity Pressure Visibility Wind Dir Wind Speed Gust Speed Precip Events Conditions
12:53 AM 18.0 °F 9.8 °F 3.9 °F 54% 30.14 in 10.0 mi NW 5.8 mph - N/A   Overcast
1:53 AM 19.0 °F 13.9 °F 6.1 °F 57% 30.12 in 10.0 mi WNW 3.5 mph - N/A   Overcast
2:53 AM 19.0 °F - 6.1 °F 57% 30.12 in 10.0 mi Calm Calm - N/A   Overcast
3:53 AM 18.0 °F 11.1 °F 7.0 °F 62% 30.09 in 10.0 mi WSW 4.6 mph - N/A   Overcast
4:53 AM 19.0 °F 12.3 °F 8.1 °F 62% 30.06 in 10.0 mi South 4.6 mph - N/A   Overcast
5:53 AM 19.9 °F 9.3 °F 9.0 °F 62% 30.04 in 10.0 mi SW 9.2 mph - N/A   Overcast
6:53 AM 19.9 °F 7.3 °F 10.9 °F 68% 30.03 in 10.0 mi SW 12.7 mph - 0.00 in   Overcast
7:53 AM 19.9 °F 8.6 °F 10.0 °F 65% 30.02 in 8.0 mi WSW 10.4 mph - 0.00 in   Overcast
8:23 AM 19.4 °F 7.9 °F 12.2 °F 74% 29.99 in 2.5 mi SW 10.4 mph - 0.00 in Snow Light Snow
8:50 AM 19.4 °F 7.9 °F 12.2 °F 74% 29.98 in 2.5 mi SW 10.4 mph - 0.00 in Snow Light Snow
8:53 AM 19.9 °F 7.9 °F 12.9 °F 74% 30.01 in 2.0 mi WSW 11.5 mph - 0.00 in Snow Light Snow
9:00 AM 19.4 °F 7.2 °F 12.2 °F 74% 29.98 in 1.5 mi WSW 11.5 mph - 0.00 in Snow Light Snow
9:05 AM 19.4 °F 6.0 °F 12.2 °F 74% 29.98 in 0.5 mi WSW 13.8 mph - 0.00 in Snow Snow
9:14 AM 19.4 °F 5.5 °F 12.2 °F 74% 29.98 in 0.2 mi WSW 15.0 mph 23.0 mph 0.00 in Snow Heavy Snow
9:28 AM 17.6 °F 5.0 °F 12.2 °F 79% 29.99 in 0.2 mi WNW 11.5 mph - 0.00 in Snow Heavy Snow
9:37 AM 17.6 °F 5.0 °F 12.2 °F 79% 29.98 in 0.5 mi WNW 11.5 mph - 0.00 in Snow Snow
9:42 AM 17.6 °F 5.7 °F 12.2 °F 79% 29.99 in 1.0 mi WNW 10.4 mph - 0.00 in Snow Light Snow
9:49 AM 17.6 °F 5.7 °F 10.4 °F 73% 29.99 in 3.0 mi WNW 10.4 mph - 0.00 in Snow Light Snow
9:53 AM 18.0 °F 7.7 °F 10.0 °F 71% 30.02 in 7.0 mi West 8.1 mph - 0.00 in   Overcast
10:05 AM 19.4 °F 9.5 °F 10.4 °F 68% 29.99 in 9.0 mi WNW 8.1 mph - N/A   Overcast
10:11 AM 19.4 °F 8.6 °F 10.4 °F 68% 29.99 in 2.5 mi West 9.2 mph - 0.00 in Snow Light Snow
10:27 AM 19.4 °F 7.9 °F 10.4 °F 68% 29.99 in 4.0 mi West 10.4 mph - 0.00 in Snow Light Snow
10:33 AM 19.4 °F 10.4 °F 10.4 °F 68% 29.99 in 1.8 mi West 6.9 mph - 0.00 in Snow Light Snow
10:49 AM 19.4 °F 10.4 °F 10.4 °F 68% 29.99 in 3.0 mi West 6.9 mph - 0.00 in Snow Light Snow
10:53 AM 19.0 °F 10.0 °F 10.9 °F 71% 30.01 in 4.0 mi NW 6.9 mph - 0.00 in Snow Light Snow
10:56 AM 19.4 °F 8.6 °F 10.4 °F 68% 29.99 in 1.8 mi NW 9.2 mph - 0.00 in Snow Light Snow
11:04 AM 17.6 °F 5.7 °F 10.4 °F 73% 29.98 in 0.5 mi NW 10.4 mph - 0.00 in Snow Snow
11:08 AM 17.6 °F 6.4 °F 10.4 °F 73% 29.98 in 0.2 mi NW 9.2 mph - 0.00 in Snow Heavy Snow
11:16 AM 17.6 °F 5.0 °F 10.4 °F 73% 29.98 in 0.2 mi NW 11.5 mph - 0.00 in Snow Heavy Snow
11:34 AM 17.6 °F 7.3 °F 10.4 °F 73% 29.98 in 0.5 mi WNW 8.1 mph - 0.00 in Snow Snow
11:43 AM 17.6 °F 7.3 °F 10.4 °F 73% 29.97 in 0.2 mi NW 8.1 mph - 0.00 in Snow Heavy Snow
11:53 AM 18.0 °F 6.9 °F 10.0 °F 71% 30.00 in 0.8 mi NW 9.2 mph - 0.00 in Snow Light Snow
12:01 PM 17.6 °F 7.3 °F 10.4 °F 73% 29.96 in 2.0 mi WNW 8.1 mph - 0.00 in Snow Light Snow
12:09 PM 17.6 °F 6.4 °F 8.6 °F 68% 29.96 in 4.0 mi WNW 9.2 mph - 0.00 in Snow Light Snow
12:30 PM 17.6 °F 7.3 °F 8.6 °F 68% 29.95 in 1.5 mi WNW 8.1 mph - 0.00 in Snow Light Snow
12:40 PM 17.6 °F 3.2 °F 10.4 °F 73% 29.95 in 0.5 mi WNW 15.0 mph - 0.00 in Snow Snow
12:51 PM 17.6 °F 4.3 °F 8.6 °F 68% 29.95 in 2.5 mi WNW 12.7 mph - 0.00 in Snow Light Snow
12:53 PM 17.1 °F 3.6 °F 9.0 °F 71% 29.98 in 3.0 mi WNW 12.7 mph - 0.00 in Snow Light Snow
1:05 PM 17.6 °F 6.4 °F 8.6 °F 68% 29.95 in 2.5 mi WNW 9.2 mph - 0.00 in Snow Light Snow
1:09 PM 19.4 °F 7.9 °F 8.6 °F 63% 29.95 in 3.0 mi WNW 10.4 mph - 0.00 in Snow Light Snow
1:53 PM 18.0 °F 4.2 °F 7.0 °F 62% 29.98 in 3.0 mi NW 13.8 mph - 0.00 in Snow Light Snow
1:58 PM 17.6 °F 2.7 °F 8.6 °F 68% 29.94 in 1.8 mi NW 16.1 mph - 0.00 in Snow Light Snow
2:09 PM 17.6 °F 2.7 °F 6.8 °F 63% 29.94 in 3.0 mi WNW 16.1 mph - 0.00 in Snow Light Snow
2:22 PM 17.6 °F 1.7 °F 6.8 °F 63% 29.95 in 2.0 mi WNW 18.4 mph - 0.00 in Snow Light Snow
2:33 PM 17.6 °F 2.2 °F 5.0 °F 58% 29.95 in 4.0 mi WNW 17.3 mph - 0.00 in Snow Light Snow
2:50 PM 17.6 °F 2.7 °F 6.8 °F 63% 29.96 in 2.5 mi WNW 16.1 mph - 0.00 in Snow Light Snow
2:53 PM 17.1 °F 3.0 °F 6.1 °F 62% 29.99 in 4.0 mi WNW 13.8 mph - 0.00 in Snow Light Snow
3:07 PM 15.8 °F -2.7 °F 6.8 °F 68% 29.96 in 1.8 mi NW 24.2 mph 28.8 mph 0.00 in Snow Light Snow
3:12 PM 15.8 °F -0.2 °F 6.8 °F 68% 29.97 in 0.8 mi NW 17.3 mph 28.8 mph 0.00 in Snow Light Snow
3:27 PM 15.8 °F 0.9 °F 6.8 °F 68% 29.98 in 2.0 mi WNW 15.0 mph - 0.00 in Snow Light Snow
3:35 PM 15.8 °F 0.9 °F 5.0 °F 62% 29.98 in 9.0 mi WNW 15.0 mph - 0.00 in   Mostly Cloudy
3:48 PM 15.8 °F -0.6 °F 1.4 °F 53% 29.98 in 10.0 mi West 18.4 mph 29.9 mph 0.00 in   Scattered Clouds
3:53 PM 16.0 °F -0.9 °F 1.9 °F 54% 30.02 in 10.0 mi WNW 19.6 mph - 0.00 in   Scattered Clouds
4:16 PM 15.8 °F 0.9 °F 5.0 °F 62% 30.00 in 2.0 mi WNW 15.0 mph 26.5 mph 0.00 in Snow Light Snow
4:33 PM 14.0 °F -2.5 °F 3.2 °F 62% 30.01 in 10.0 mi WNW 17.3 mph - 0.00 in   Overcast
4:53 PM 15.1 °F -0.6 °F 3.0 °F 59% 30.04 in 10.0 mi WNW 16.1 mph - 0.00 in   Overcast
5:19 PM 14.0 °F -3.4 °F 3.2 °F 62% 30.01 in 2.0 mi West 19.6 mph - 0.00 in Snow Light Snow
5:27 PM 12.2 °F -5.3 °F 1.4 °F 62% 30.01 in 9.0 mi West 18.4 mph 24.2 mph 0.00 in   Overcast
5:53 PM 12.9 °F -4.4 °F 3.0 °F 65% 30.06 in 4.0 mi WNW 18.4 mph 21.9 mph 0.00 in Snow Light Snow
5:57 PM 12.2 °F -5.3 °F 3.2 °F 67% 30.02 in 2.5 mi WNW 18.4 mph - 0.00 in Snow Light Snow
6:11 PM 12.2 °F -3.7 °F 1.4 °F 62% 30.03 in 6.0 mi WNW 15.0 mph 26.5 mph 0.00 in Snow Light Snow
6:20 PM 12.2 °F -7.1 °F -0.4 °F 57% 30.03 in 10.0 mi WNW 23.0 mph 29.9 mph 0.00 in   Mostly Cloudy
6:53 PM 10.9 °F -7.0 °F -2.0 °F 56% 30.07 in 10.0 mi West 18.4 mph 29.9 mph 0.00 in   Clear
7:53 PM 10.0 °F -5.9 °F -0.9 °F 61% 30.09 in 10.0 mi WNW 13.8 mph - N/A   Scattered Clouds
8:51 PM 8.6 °F -4.7 °F -0.4 °F 67% 30.07 in 10.0 mi WNW 9.2 mph - N/A   Mostly Cloudy
8:53 PM 9.0 °F -4.2 °F -0.9 °F 64% 30.10 in 10.0 mi WNW 9.2 mph - N/A   Mostly Cloudy
9:04 PM 8.6 °F -9.5 °F -0.4 °F 67% 30.07 in 9.0 mi WNW 17.3 mph 21.9 mph N/A   Overcast
9:33 PM 8.6 °F -8.3 °F -2.2 °F 62% 30.08 in 8.0 mi WNW 15.0 mph - N/A   Overcast
9:51 PM 8.6 °F -7.7 °F -2.2 °F 62% 30.09 in 10.0 mi WNW 13.8 mph - N/A   Scattered Clouds
9:53 PM 8.1 °F -7.7 °F -2.9 °F 61% 30.12 in 10.0 mi West 12.7 mph - N/A   Scattered Clouds
10:53 PM 7.0 °F -5.7 °F -4.0 °F 61% 30.14 in 10.0 mi WNW 8.1 mph - N/A   Mostly Cloudy
11:43 PM 6.8 °F -8.6 °F -2.2 °F 67% 30.10 in 9.0 mi WNW 11.5 mph - 0.00 in   Overcast
11:53 PM 7.0 °F -9.1 °F -4.0 °F 61% 30.14 in 10.0 mi WNW 12.7 mph - 0.00 in   Overcast